Terminal Aerodrome Forecast
Issued by NWS

Home | Current Version | Previous Version | Text Only | Print | Product List | Glossary On
Versions: 1 2 3 4 5 6 7 8 9 10 11 12 13 14 15 16 17 18 19 20 21 22 23 24
000
FTUS45 KPSR 032320
TAFSDL
TAF
KSDL 032320Z 0400/0424 20010G15KT P6SM FEW100 SCT250
     FM040200 25008KT P6SM BKN100 BKN250
     FM040700 VRB04KT P6SM VCSH BKN070 OVC250
     FM041000 VRB05KT P6SM -SHRA SCT025 BKN050 OVC070
     FM041600 18004KT P6SM SCT050 BKN070 OVC100
     FM042200 27010KT P6SM VCSH BKN070=

USA.gov is the U.S. government's official web portal to all federal, state and local government web resources and services.